Time;durP1;ratioP1;P1;durP2;ratioP2;P2;SDS_P1;SDS_P2;PMS_P1;PMS_P2;Temp;Humidity;BMP_temperature;BMP_pressure;BME280_temperature;BME280_humidity;BME280_pressure;Samples;Min_cycle;Max_cycle;Signal;HPM_P1;HPM_P2
2021/04/22 00:00:22;;;;;;;10.17;3.30;;;6.80;96.70;;;;;;5074139;28;20597;-77
2021/04/22 00:02:49;;;;;;;5.50;3.60;;;6.80;97.10;;;;;;5074820;28;20436;-77
2021/04/22 00:05:28;;;;;;;13.60;5.30;;;6.80;97.20;;;;;;5094273;28;20450;-78
2021/04/22 00:07:55;;;;;;;15.45;4.00;;;6.80;97.20;;;;;;5058845;28;20649;-77
2021/04/22 00:10:35;;;;;;;9.50;3.60;;;6.80;97.50;;;;;;5074737;28;20181;-77
2021/04/22 00:13:04;;;;;;;10.67;3.73;;;6.70;97.60;;;;;;5091690;28;20800;-78
2021/04/22 00:15:30;;;;;;;10.15;4.00;;;6.60;97.70;;;;;;5060816;28;20466;-77
2021/04/22 00:17:57;;;;;;;11.70;4.78;;;6.60;97.80;;;;;;5079598;28;20213;-77
2021/04/22 00:20:25;;;;;;;10.77;4.20;;;6.60;98.30;;;;;;5072627;28;20192;-77
2021/04/22 00:22:52;;;;;;;8.55;4.10;;;6.50;98.40;;;;;;5075129;28;20682;-77
2021/04/22 00:25:18;;;;;;;14.27;4.45;;;6.50;98.60;;;;;;5076408;28;20637;-77
2021/04/22 00:27:44;;;;;;;9.15;4.00;;;6.50;98.60;;;;;;5092769;28;20187;-77
2021/04/22 00:30:16;;;;;;;11.70;4.25;;;6.50;98.60;;;;;;5092517;28;20183;-77
2021/04/22 00:32:44;;;;;;;9.68;3.80;;;6.40;98.60;;;;;;5081455;28;20290;-77
2021/04/22 00:35:12;;;;;;;10.48;5.40;;;6.40;98.80;;;;;;5090772;28;20302;-78
2021/04/22 00:37:40;;;;;;;7.88;3.83;;;6.30;99.90;;;;;;5085175;28;20242;-78
2021/04/22 00:40:11;;;;;;;9.32;3.72;;;6.30;99.50;;;;;;5100704;28;20188;-77
2021/04/22 00:42:37;;;;;;;12.68;3.78;;;6.30;99.90;;;;;;5106549;28;20560;-78
2021/04/22 00:45:05;;;;;;;9.70;3.80;;;6.30;99.90;;;;;;5101842;28;20703;-77
2021/04/22 00:47:35;;;;;;;15.68;4.10;;;6.30;99.90;;;;;;5101426;28;20195;-78
2021/04/22 00:50:01;;;;;;;7.70;3.72;;;6.20;99.90;;;;;;5099323;28;20804;-77
2021/04/22 00:52:28;;;;;;;10.27;5.40;;;6.20;99.90;;;;;;5062394;28;20178;-77
2021/04/22 00:54:54;;;;;;;11.77;4.15;;;6.10;99.90;;;;;;5072691;28;20254;-77
2021/04/22 00:57:20;;;;;;;7.13;3.83;;;6.20;99.90;;;;;;5050304;28;20662;-77
2021/04/22 00:59:48;;;;;;;13.98;3.70;;;6.10;99.90;;;;;;5069236;28;20432;-78
2021/04/22 01:02:17;;;;;;;11.93;3.75;;;6.10;99.90;;;;;;5078165;28;20207;-77
2021/04/22 01:04:45;;;;;;;15.25;4.55;;;6.10;99.90;;;;;;5077064;28;20241;-77
2021/04/22 01:07:12;;;;;;;15.23;4.10;;;6.00;99.90;;;;;;5070587;28;20618;-77
2021/04/22 01:09:38;;;;;;;14.50;4.03;;;5.90;99.90;;;;;;5078492;28;20290;-77
2021/04/22 01:12:07;;;;;;;12.80;4.75;;;5.90;99.90;;;;;;5086914;28;20198;-77
2021/04/22 01:14:36;;;;;;;9.98;3.50;;;5.90;99.90;;;;;;5078254;28;20211;-77
2021/04/22 01:17:03;;;;;;;8.43;3.70;;;5.90;99.90;;;;;;5080033;28;20207;-77
2021/04/22 01:19:29;;;;;;;8.65;3.90;;;5.90;99.90;;;;;;5086430;28;20187;-77
2021/04/22 01:21:55;;;;;;;16.47;4.27;;;5.80;99.90;;;;;;5063551;28;20719;-77
2021/04/22 01:24:22;;;;;;;11.65;4.25;;;5.80;99.90;;;;;;5071617;28;20802;-77
2021/04/22 01:26:53;;;;;;;14.48;4.68;;;5.70;99.90;;;;;;5079347;28;20180;-78
2021/04/22 01:29:21;;;;;;;15.70;3.97;;;5.70;99.90;;;;;;5083970;28;20223;-77
2021/04/22 01:31:47;;;;;;;13.30;4.33;;;5.70;99.90;;;;;;5064735;28;20720;-77
2021/04/22 01:34:13;;;;;;;11.80;4.15;;;5.70;99.90;;;;;;5068429;28;20457;-78
2021/04/22 01:36:42;;;;;;;11.80;3.97;;;5.60;99.90;;;;;;5069729;28;20243;-77
2021/04/22 01:39:11;;;;;;;10.45;3.75;;;5.50;99.90;;;;;;5073426;28;20447;-77
2021/04/22 01:41:38;;;;;;;14.73;3.95;;;5.50;99.90;;;;;;5075212;28;20183;-77
2021/04/22 01:44:05;;;;;;;8.30;3.53;;;5.40;99.90;;;;;;5079029;28;20810;-77
2021/04/22 01:46:31;;;;;;;9.07;3.35;;;5.40;99.90;;;;;;5079085;28;20183;-78
2021/04/22 01:48:57;;;;;;;14.77;3.80;;;5.40;99.90;;;;;;5081284;28;20231;-77
2021/04/22 01:51:23;;;;;;;10.80;4.03;;;5.30;99.90;;;;;;5076013;28;20273;-76
2021/04/22 01:53:52;;;;;;;14.38;4.00;;;5.30;99.90;;;;;;5075477;28;20586;-77
2021/04/22 01:56:19;;;;;;;11.82;4.15;;;5.20;99.90;;;;;;5087788;28;20227;-77
2021/04/22 01:58:46;;;;;;;15.68;4.15;;;5.20;99.90;;;;;;5053707;28;20187;-78
2021/04/22 02:01:12;;;;;;;12.07;4.15;;;5.10;99.90;;;;;;5069894;28;20561;-77
2021/04/22 02:03:38;;;;;;;11.15;3.78;;;5.10;99.90;;;;;;5071374;28;20536;-77
2021/04/22 02:06:07;;;;;;;10.45;3.72;;;5.00;99.90;;;;;;5075658;28;20193;-77
2021/04/22 02:08:34;;;;;;;8.80;3.63;;;5.00;99.90;;;;;;5073396;28;20237;-77
2021/04/22 02:11:03;;;;;;;16.15;4.15;;;5.00;99.90;;;;;;5076924;28;20554;-78
2021/04/22 02:13:30;;;;;;;11.65;3.65;;;4.90;99.90;;;;;;5062569;28;20243;-77
2021/04/22 02:15:56;;;;;;;11.40;3.67;;;4.90;99.90;;;;;;5069793;28;20211;-77
2021/04/22 02:18:22;;;;;;;10.00;4.27;;;4.80;99.90;;;;;;5078126;28;20191;-77
2021/04/22 02:20:52;;;;;;;5.70;3.47;;;4.80;99.90;;;;;;5084938;28;20433;-77
2021/04/22 02:23:22;;;;;;;9.25;3.78;;;4.80;99.90;;;;;;5069589;28;20183;-78
2021/04/22 02:25:48;;;;;;;14.82;3.38;;;4.80;99.90;;;;;;5036825;28;20627;-77
2021/04/22 02:28:15;;;;;;;18.25;4.22;;;4.70;99.90;;;;;;5073027;28;20185;-77
2021/04/22 02:30:45;;;;;;;14.50;3.55;;;4.70;99.90;;;;;;5081684;28;20187;-77
2021/04/22 02:33:15;;;;;;;14.23;4.10;;;4.70;99.90;;;;;;5076900;28;20217;-77
2021/04/22 02:35:48;;;;;;;10.10;4.60;;;4.60;99.90;;;;;;5077849;28;20210;-77
2021/04/22 02:38:15;;;;;;;8.65;5.10;;;4.60;99.90;;;;;;5075301;28;20214;-77
2021/04/22 02:40:45;;;;;;;8.05;3.97;;;4.50;99.90;;;;;;5085469;28;20195;-77
2021/04/22 02:43:14;;;;;;;15.70;3.88;;;4.50;99.90;;;;;;5074031;28;20274;-77
2021/04/22 02:45:44;;;;;;;10.10;5.00;;;4.40;99.90;;;;;;5071982;28;20198;-77
2021/04/22 02:48:11;;;;;;;20.85;5.10;;;4.40;99.90;;;;;;5083764;28;20199;-77
2021/04/22 02:50:39;;;;;;;11.65;4.22;;;4.40;99.90;;;;;;5082996;28;20679;-78
2021/04/22 02:53:06;;;;;;;10.15;3.97;;;4.40;99.90;;;;;;5079494;28;20723;-77
2021/04/22 02:55:32;;;;;;;7.55;3.70;;;4.30;99.90;;;;;;5065392;28;20314;-78
2021/04/22 02:57:59;;;;;;;12.48;3.35;;;4.30;99.90;;;;;;5079963;28;20179;-77
2021/04/22 03:00:28;;;;;;;18.85;4.22;;;4.30;99.90;;;;;;5067666;28;20198;-77
2021/04/22 03:02:56;;;;;;;11.88;4.63;;;4.30;99.90;;;;;;5083068;28;20191;-77
2021/04/22 03:05:22;;;;;;;14.82;4.45;;;4.30;99.90;;;;;;5084642;28;20234;-77
2021/04/22 03:07:48;;;;;;;18.58;4.00;;;4.30;99.90;;;;;;5082038;28;20188;-77
2021/04/22 03:10:17;;;;;;;14.23;3.83;;;4.20;99.90;;;;;;5055063;28;20301;-77
2021/04/22 03:12:45;;;;;;;14.38;4.40;;;4.20;99.90;;;;;;5073278;28;20436;-77
2021/04/22 03:15:15;;;;;;;13.43;4.25;;;4.20;99.90;;;;;;5082599;28;20241;-78
2021/04/22 03:17:42;;;;;;;10.45;3.50;;;4.10;99.90;;;;;;5080760;28;20204;-77
2021/04/22 03:20:09;;;;;;;12.90;4.57;;;4.10;99.90;;;;;;5070904;28;21880;-78
2021/04/22 03:22:38;;;;;;;10.05;4.15;;;4.10;99.90;;;;;;5068349;28;20728;-77
2021/04/22 03:25:06;;;;;;;11.43;4.40;;;4.10;99.90;;;;;;5086696;28;20545;-77
2021/04/22 03:27:33;;;;;;;12.90;4.47;;;4.10;99.90;;;;;;5055629;28;20570;-77
2021/04/22 03:30:00;;;;;;;11.80;4.18;;;4.10;99.90;;;;;;5079438;28;20191;-77
2021/04/22 03:32:27;;;;;;;9.68;3.72;;;4.10;99.90;;;;;;5087241;28;20179;-77
2021/04/22 03:34:55;;;;;;;9.43;4.35;;;4.00;99.90;;;;;;5064639;28;21201;-77
2021/04/22 03:37:23;;;;;;;8.88;4.15;;;4.00;99.90;;;;;;5081637;28;20214;-77
2021/04/22 03:39:49;;;;;;;9.80;5.10;;;4.00;99.90;;;;;;5079051;28;20184;-77
2021/04/22 03:42:19;;;;;;;11.07;4.25;;;4.00;99.90;;;;;;5082526;28;20429;-77
2021/04/22 03:44:45;;;;;;;15.50;4.25;;;4.00;99.90;;;;;;5079429;28;20211;-77
2021/04/22 03:47:11;;;;;;;6.28;4.15;;;4.00;99.90;;;;;;5083666;28;20393;-77
2021/04/22 03:49:38;;;;;;;11.52;5.00;;;4.00;99.90;;;;;;5082101;28;20293;-77
2021/04/22 03:52:05;;;;;;;13.80;5.35;;;4.00;99.90;;;;;;5082628;28;20182;-77
2021/04/22 03:54:32;;;;;;;10.55;4.57;;;3.90;99.90;;;;;;5085223;28;20212;-77
2021/04/22 03:56:58;;;;;;;15.70;4.90;;;3.50;99.90;;;;;;5078793;28;20633;-78
2021/04/22 03:59:25;;;;;;;11.25;3.45;;;3.80;99.90;;;;;;5076051;28;20185;-77
2021/04/22 04:01:53;;;;;;;9.95;3.83;;;3.80;99.90;;;;;;5088717;28;20210;-77
2021/04/22 04:04:19;;;;;;;12.88;4.22;;;3.80;99.90;;;;;;5092397;28;20726;-77
2021/04/22 04:06:48;;;;;;;10.13;5.25;;;3.80;99.90;;;;;;5064894;28;20220;-77
2021/04/22 04:09:14;;;;;;;8.32;4.70;;;3.70;99.90;;;;;;5073926;28;20190;-77
2021/04/22 04:11:41;;;;;;;10.43;4.50;;;3.70;99.90;;;;;;5109103;28;20712;-77
2021/04/22 04:14:07;;;;;;;9.27;4.32;;;3.60;99.90;;;;;;5073884;28;20207;-77
2021/04/22 04:16:33;;;;;;;11.60;4.83;;;3.60;99.90;;;;;;5079059;28;20713;-77
2021/04/22 04:19:01;;;;;;;14.77;5.35;;;3.60;99.90;;;;;;5068917;28;20448;-77
2021/04/22 04:21:29;;;;;;;8.38;4.55;;;3.50;99.90;;;;;;5075310;28;20277;-77
2021/04/22 04:23:57;;;;;;;11.60;5.65;;;3.50;99.90;;;;;;5074823;28;20217;-77
2021/04/22 04:26:24;;;;;;;8.83;4.80;;;3.50;99.90;;;;;;5078574;28;20193;-76
2021/04/22 04:28:52;;;;;;;9.25;4.30;;;3.40;99.90;;;;;;5104107;28;20437;-75
2021/04/22 04:31:18;;;;;;;7.95;4.82;;;3.40;99.90;;;;;;5066366;28;20190;-77
2021/04/22 04:33:44;;;;;;;10.63;4.28;;;3.40;99.90;;;;;;5066495;28;20575;-76
2021/04/22 04:36:12;;;;;;;16.40;4.13;;;3.40;99.90;;;;;;5082171;28;20221;-77
2021/04/22 04:38:38;;;;;;;19.00;4.78;;;3.40;99.90;;;;;;5100530;28;20183;-77
2021/04/22 04:41:04;;;;;;;11.25;5.50;;;3.40;99.90;;;;;;5082324;28;20198;-77
2021/04/22 04:43:30;;;;;;;13.85;5.07;;;3.40;99.90;;;;;;5080974;28;20198;-77
2021/04/22 04:45:56;;;;;;;7.32;4.30;;;3.40;99.90;;;;;;5058382;28;20687;-78
2021/04/22 04:48:22;;;;;;;7.22;3.90;;;3.40;99.90;;;;;;5100352;28;20190;-77
2021/04/22 04:50:48;;;;;;;9.15;4.30;;;3.10;99.90;;;;;;5068439;28;20204;-77
2021/04/22 04:53:14;;;;;;;16.30;4.63;;;3.50;99.90;;;;;;5062249;28;20678;-77
2021/04/22 04:55:43;;;;;;;15.70;5.40;;;3.50;99.90;;;;;;5097705;28;20226;-76
2021/04/22 04:58:11;;;;;;;10.50;5.20;;;3.50;99.90;;;;;;5100448;28;20420;-78
2021/04/22 05:00:37;;;;;;;11.00;4.37;;;3.60;99.90;;;;;;5063691;28;20235;-78
2021/04/22 05:03:03;;;;;;;9.80;4.30;;;3.50;99.90;;;;;;5103360;28;20425;-77
2021/04/22 05:05:29;;;;;;;11.30;4.05;;;3.50;99.90;;;;;;5100349;28;20963;-77
2021/04/22 05:07:55;;;;;;;11.93;5.10;;;3.50;99.90;;;;;;5076919;28;20190;-77
2021/04/22 05:10:25;;;;;;;14.15;5.15;;;3.50;99.90;;;;;;5067605;28;20489;-76
2021/04/22 05:12:54;;;;;;;16.08;7.32;;;3.50;99.90;;;;;;5072661;28;20295;-77
2021/04/22 05:15:20;;;;;;;17.67;6.05;;;3.60;99.90;;;;;;5091183;28;20584;-78
2021/04/22 05:17:48;;;;;;;14.13;6.60;;;3.70;99.90;;;;;;5061765;28;20573;-77
2021/04/22 05:20:15;;;;;;;17.65;6.95;;;3.70;99.90;;;;;;5096135;28;20175;-78
2021/04/22 05:22:43;;;;;;;10.85;6.05;;;3.80;99.90;;;;;;5064689;28;20188;-77
2021/04/22 05:25:10;;;;;;;11.15;5.90;;;3.80;99.90;;;;;;5074787;28;20268;-77
2021/04/22 05:27:37;;;;;;;8.27;6.07;;;3.90;99.90;;;;;;5075543;28;20175;-77
2021/04/22 05:30:05;;;;;;;13.00;6.70;;;4.00;99.90;;;;;;5076004;28;20220;-77
2021/04/22 05:32:34;;;;;;;12.27;6.10;;;4.10;99.90;;;;;;5059144;28;20271;-77
2021/04/22 05:35:00;;;;;;;10.60;6.15;;;4.30;99.90;;;;;;5075458;28;20195;-77
2021/04/22 05:37:28;;;;;;;10.60;7.00;;;4.40;99.90;;;;;;5075598;28;20660;-77
2021/04/22 05:39:54;;;;;;;13.57;6.88;;;4.50;99.90;;;;;;5075579;28;20452;-78
2021/04/22 05:42:23;;;;;;;22.93;7.50;;;4.60;99.90;;;;;;5075554;28;20213;-77
2021/04/22 05:44:49;;;;;;;14.18;6.28;;;4.70;99.90;;;;;;5075346;28;20976;-77
2021/04/22 05:47:17;;;;;;;10.45;5.80;;;4.80;99.90;;;;;;5093251;28;20202;-78
2021/04/22 05:49:43;;;;;;;10.82;5.32;;;4.90;99.90;;;;;;5058229;28;20190;-77
2021/04/22 05:52:09;;;;;;;14.43;5.43;;;5.00;99.90;;;;;;5075169;28;20175;-77
2021/04/22 05:54:37;;;;;;;15.90;5.20;;;5.10;99.90;;;;;;5074683;28;20311;-76
2021/04/22 05:57:03;;;;;;;12.38;5.20;;;5.20;99.90;;;;;;5093395;28;20217;-77
2021/04/22 05:59:30;;;;;;;19.55;7.50;;;5.30;99.90;;;;;;5075412;28;20530;-77
2021/04/22 06:01:58;;;;;;;18.67;6.97;;;5.40;99.90;;;;;;5092755;28;20265;-77
2021/04/22 06:04:29;;;;;;;19.08;8.13;;;5.50;99.90;;;;;;5058421;28;20253;-77
2021/04/22 06:06:57;;;;;;;13.75;6.68;;;5.60;99.90;;;;;;5092597;28;20232;-77
2021/04/22 06:09:23;;;;;;;14.37;6.40;;;5.70;99.90;;;;;;5073208;28;20560;-77
2021/04/22 06:11:49;;;;;;;14.05;6.40;;;5.70;99.90;;;;;;5092664;28;20429;-77
2021/04/22 06:14:15;;;;;;;15.27;6.60;;;5.80;99.90;;;;;;5078744;28;20221;-77
2021/04/22 06:16:42;;;;;;;12.30;6.55;;;5.90;99.90;;;;;;5062213;28;20623;-78
2021/04/22 06:19:08;;;;;;;10.93;6.72;;;6.10;99.90;;;;;;5097460;28;20171;-77
2021/04/22 06:21:39;;;;;;;14.07;5.80;;;6.10;99.90;;;;;;5079421;28;20217;-77
2021/04/22 06:24:09;;;;;;;14.75;6.88;;;6.20;99.90;;;;;;5096929;28;20616;-77
2021/04/22 06:26:35;;;;;;;18.40;7.35;;;6.30;99.90;;;;;;5078576;28;20172;-77
2021/04/22 06:29:04;;;;;;;18.60;7.38;;;6.30;99.90;;;;;;5095966;28;20215;-78
2021/04/22 06:31:31;;;;;;;17.85;7.80;;;6.40;99.90;;;;;;5096893;28;20265;-78
2021/04/22 06:33:59;;;;;;;18.63;7.30;;;6.50;99.90;;;;;;5083146;28;20615;-78
2021/04/22 06:36:27;;;;;;;19.97;7.93;;;6.50;99.90;;;;;;5098923;28;20573;-78
2021/04/22 06:38:54;;;;;;;19.38;7.47;;;6.60;99.90;;;;;;5099054;28;20427;-78
2021/04/22 06:41:20;;;;;;;13.63;6.00;;;6.70;99.90;;;;;;5067735;28;20181;-78
2021/04/22 06:43:46;;;;;;;16.70;6.90;;;6.80;99.90;;;;;;5077853;28;20446;-78
2021/04/22 06:46:14;;;;;;;17.30;7.27;;;6.80;99.90;;;;;;5096485;28;20423;-78
2021/04/22 06:48:40;;;;;;;11.60;5.97;;;6.90;99.90;;;;;;5096634;28;20438;-78
2021/04/22 06:51:11;;;;;;;18.63;7.70;;;6.90;99.90;;;;;;5062403;28;20958;-77
2021/04/22 06:53:37;;;;;;;18.57;8.73;;;7.00;99.90;;;;;;5094968;28;20547;-78
2021/04/22 06:56:05;;;;;;;14.43;5.97;;;7.10;99.90;;;;;;5066480;28;20467;-78
2021/04/22 06:58:31;;;;;;;21.03;7.50;;;7.10;99.90;;;;;;5061939;28;20448;-77
2021/04/22 07:01:02;;;;;;;14.80;6.43;;;7.20;99.90;;;;;;5078968;28;20863;-77
2021/04/22 07:03:28;;;;;;;12.43;7.10;;;7.20;99.90;;;;;;5062455;28;20468;-77
2021/04/22 07:05:55;;;;;;;16.30;7.50;;;7.20;99.90;;;;;;5095591;28;20429;-77
2021/04/22 07:08:23;;;;;;;19.50;8.07;;;7.30;99.90;;;;;;5078465;28;20485;-77
2021/04/22 07:10:49;;;;;;;19.43;7.97;;;7.40;99.90;;;;;;5077800;28;20432;-77
2021/04/22 07:13:15;;;;;;;20.80;10.30;;;7.40;99.90;;;;;;5079603;28;20511;-77
2021/04/22 07:15:43;;;;;;;19.03;9.20;;;7.60;99.90;;;;;;5096361;28;20516;-77
2021/04/22 07:18:11;;;;;;;13.50;8.27;;;7.70;99.90;;;;;;5077986;28;20496;-77
2021/04/22 07:20:38;;;;;;;23.53;9.60;;;7.80;99.90;;;;;;5076708;28;20435;-78
2021/04/22 07:23:05;;;;;;;17.93;7.93;;;7.80;99.90;;;;;;5094318;28;20430;-78
2021/04/22 07:25:33;;;;;;;17.67;8.03;;;7.90;99.90;;;;;;5077407;28;20436;-77
2021/04/22 07:28:07;;;;;;;16.77;7.50;;;7.90;99.90;;;;;;5077218;28;20491;-77
2021/04/22 07:30:34;;;;;;;18.10;7.90;;;8.00;99.90;;;;;;5077438;28;20421;-78
2021/04/22 07:33:00;;;;;;;12.57;6.93;;;8.00;99.10;;;;;;5077146;28;20523;-78
2021/04/22 07:35:28;;;;;;;12.70;6.47;;;8.10;98.30;;;;;;5059314;28;20553;-77
2021/04/22 07:37:57;;;;;;;12.43;5.57;;;8.20;96.90;;;;;;5095189;28;20432;-77
2021/04/22 07:40:27;;;;;;;22.93;7.40;;;8.30;97.20;;;;;;5077039;28;20424;-78
2021/04/22 07:42:53;;;;;;;21.33;6.10;;;8.30;96.00;;;;;;5076401;28;20482;-77
2021/04/22 07:45:33;;;;;;;7.67;5.30;;;8.40;94.50;;;;;;5060568;28;20956;-76
2021/04/22 07:48:01;;;;;;;6.20;5.60;;;8.30;93.00;;;;;;5094761;28;20510;-77
2021/04/22 07:50:29;;;;;;;11.80;5.77;;;8.40;93.50;;;;;;5094576;28;20417;-76
2021/04/22 07:53:04;;;;;;;14.03;5.10;;;8.30;93.60;;;;;;5076492;28;20442;-77
2021/04/22 07:55:41;;;;;;;6.27;4.43;;;8.40;93.50;;;;;;5075988;28;20486;-76
2021/04/22 07:58:07;;;;;;;18.37;5.47;;;8.30;93.40;;;;;;5094213;28;20437;-77
2021/04/22 08:00:35;;;;;;;8.03;5.47;;;8.20;93.50;;;;;;5075968;28;20842;-77
2021/04/22 08:03:02;;;;;;;8.40;4.00;;;8.30;94.00;;;;;;5086463;28;20430;-77
2021/04/22 08:05:37;;;;;;;7.93;5.20;;;8.40;93.20;;;;;;5044030;28;20510;-77
2021/04/22 08:08:09;;;;;;;11.67;5.43;;;8.50;93.00;;;;;;5076769;22;20921;-80
2021/04/22 08:10:38;;;;;;;7.00;4.10;;;8.50;92.80;;;;;;5055357;28;20503;-86
2021/04/22 08:13:08;;;;;;;17.60;4.27;;;8.50;92.60;;;;;;5053526;28;20439;-83
2021/04/22 08:15:36;;;;;;;9.77;6.30;;;8.40;92.50;;;;;;5037660;28;20466;-83
2021/04/22 08:18:03;;;;;;;6.23;4.10;;;8.40;92.50;;;;;;5048909;28;20430;-83
2021/04/22 08:20:30;;;;;;;8.57;4.87;;;8.40;91.90;;;;;;5055595;28;20518;-83
2021/04/22 08:23:03;;;;;;;9.47;5.27;;;8.50;92.60;;;;;;5034752;28;20440;-81
2021/04/22 08:25:33;;;;;;;13.53;5.80;;;8.60;92.60;;;;;;5036882;28;20444;-82
2021/04/22 08:27:59;;;;;;;9.80;5.20;;;8.70;92.40;;;;;;5053962;28;20446;-83
2021/04/22 08:30:30;;;;;;;14.33;6.10;;;8.90;91.60;;;;;;5050429;28;20434;-81
2021/04/22 08:33:00;;;;;;;14.30;5.00;;;8.90;91.80;;;;;;5048154;28;20445;-82
2021/04/22 08:35:29;;;;;;;10.00;5.57;;;9.00;91.70;;;;;;5053169;28;20469;-83
2021/04/22 08:37:57;;;;;;;17.30;5.50;;;9.10;90.30;;;;;;5054146;28;20426;-81
2021/04/22 08:40:27;;;;;;;7.60;5.00;;;9.00;90.30;;;;;;5053270;28;20434;-81
2021/04/22 08:42:53;;;;;;;9.33;5.13;;;8.90;91.00;;;;;;5019918;28;20590;-81
2021/04/22 08:45:20;;;;;;;9.80;5.30;;;8.90;90.30;;;;;;5049088;28;20446;-80
2021/04/22 08:47:46;;;;;;;7.97;5.17;;;9.20;90.80;;;;;;5052521;28;20926;-82
2021/04/22 08:50:17;;;;;;;15.50;7.50;;;9.40;90.70;;;;;;5054281;28;20423;-83
2021/04/22 08:52:45;;;;;;;8.27;5.90;;;9.50;90.50;;;;;;5053271;28;20762;-83
2021/04/22 08:55:13;;;;;;;9.90;6.30;;;9.50;89.90;;;;;;5053900;28;21029;-84
2021/04/22 08:57:41;;;;;;;7.23;6.40;;;9.80;89.40;;;;;;5042256;28;20950;-83
2021/04/22 09:00:16;;;;;;;14.10;6.00;;;10.00;87.20;;;;;;5025491;28;20434;-83
2021/04/22 09:02:42;;;;;;;12.50;5.70;;;10.20;86.30;;;;;;5042552;28;20469;-80
2021/04/22 09:05:12;;;;;;;9.13;6.00;;;10.20;85.60;;;;;;5044177;28;20791;-81
2021/04/22 09:07:38;;;;;;;14.37;5.90;;;10.50;85.40;;;;;;5053754;28;20453;-82
2021/04/22 09:10:05;;;;;;;12.93;7.33;;;10.80;82.80;;;;;;5040350;28;20434;-81
2021/04/22 09:12:31;;;;;;;7.73;5.80;;;10.60;80.70;;;;;;5034412;28;20446;-81
2021/04/22 09:15:00;;;;;;;10.67;5.20;;;10.60;81.50;;;;;;5053905;28;20415;-82
2021/04/22 09:17:30;;;;;;;11.53;7.40;;;10.60;82.30;;;;;;5045692;28;20455;-82
2021/04/22 09:19:58;;;;;;;9.00;6.37;;;10.70;81.10;;;;;;5038142;28;20449;-83
2021/04/22 09:22:44;;;;;;;10.93;7.37;;;10.90;80.20;;;;;;5064491;28;20442;-81
2021/04/22 09:25:23;;;;;;;11.63;6.30;;;10.90;81.70;;;;;;5045274;28;20436;-85
2021/04/22 09:28:01;;;;;;;15.23;6.70;;;11.00;83.00;;;;;;5052039;28;20458;-82
2021/04/22 09:30:43;;;;;;;10.90;6.10;;;11.20;78.10;;;;;;5029042;28;20472;-82
2021/04/22 09:33:24;;;;;;;8.67;6.63;;;11.30;78.80;;;;;;5053565;28;20419;-82
2021/04/22 09:36:04;;;;;;;8.37;7.27;;;11.50;79.20;;;;;;5038783;28;20468;-82
2021/04/22 09:38:30;;;;;;;7.30;6.57;;;11.60;79.20;;;;;;5035885;28;20888;-80
2021/04/22 09:41:09;;;;;;;10.73;7.57;;;11.60;77.00;;;;;;5006882;28;20523;-83
2021/04/22 09:43:37;;;;;;;11.07;6.90;;;11.50;76.70;;;;;;5053002;28;20427;-84
2021/04/22 09:46:04;;;;;;;10.53;8.60;;;11.70;76.00;;;;;;5053287;28;20923;-83
2021/04/22 09:48:32;;;;;;;15.00;8.43;;;11.90;76.20;;;;;;5035217;28;20442;-85
2021/04/22 09:51:11;;;;;;;13.73;7.70;;;11.90;75.10;;;;;;5047908;28;20519;-84
2021/04/22 09:53:39;;;;;;;11.80;7.30;;;12.00;78.10;;;;;;5054199;28;20419;-82
2021/04/22 09:56:13;;;;;;;16.53;8.87;;;12.20;76.00;;;;;;5050864;28;20462;-84
2021/04/22 09:58:39;;;;;;;11.97;10.73;;;12.40;75.40;;;;;;5044459;28;20456;-85
2021/04/22 10:01:08;;;;;;;14.03;8.43;;;12.30;75.80;;;;;;5042148;28;20430;-88
2021/04/22 10:03:37;;;;;;;13.20;8.53;;;12.20;73.80;;;;;;5054216;28;20446;-86
2021/04/22 10:06:04;;;;;;;9.67;8.10;;;12.30;75.40;;;;;;5053328;28;20432;-81
2021/04/22 10:08:30;;;;;;;8.80;7.50;;;12.30;75.10;;;;;;5031391;28;20582;-81
2021/04/22 10:11:02;;;;;;;13.53;9.63;;;12.40;75.70;;;;;;5024696;28;20755;-81
2021/04/22 10:13:41;;;;;;;12.83;8.80;;;12.60;74.90;;;;;;5046084;28;20923;-82
2021/04/22 10:16:07;;;;;;;17.03;8.63;;;12.70;73.50;;;;;;5016370;28;20478;-83
2021/04/22 10:18:38;;;;;;;13.63;7.20;;;12.90;73.30;;;;;;5032804;28;20465;-82
2021/04/22 10:21:06;;;;;;;9.63;7.80;;;13.20;71.80;;;;;;5008304;28;20435;-82
2021/04/22 10:23:35;;;;;;;11.67;7.30;;;13.30;70.30;;;;;;5035871;28;20917;-81
2021/04/22 10:26:02;;;;;;;8.10;7.30;;;13.40;68.10;;;;;;5051838;28;20764;-82
2021/04/22 10:28:28;;;;;;;10.47;7.53;;;13.60;70.70;;;;;;5029639;28;20967;-82
2021/04/22 10:30:59;;;;;;;12.63;7.50;;;13.70;71.20;;;;;;5019939;28;20465;-82
2021/04/22 10:33:28;;;;;;;10.17;8.30;;;13.50;67.50;;;;;;5016136;28;20439;-82
2021/04/22 10:35:56;;;;;;;12.90;8.37;;;13.40;70.20;;;;;;5017685;28;20555;-83
2021/04/22 10:38:23;;;;;;;11.17;6.50;;;13.70;70.00;;;;;;5011036;28;20466;-82
2021/04/22 10:40:52;;;;;;;8.17;7.40;;;13.60;66.70;;;;;;5051554;28;20773;-82
2021/04/22 10:43:25;;;;;;;9.17;6.17;;;14.00;65.60;;;;;;5016655;28;20444;-83
2021/04/22 10:45:53;;;;;;;12.20;8.30;;;14.20;66.50;;;;;;5052585;28;20455;-83
2021/04/22 10:48:20;;;;;;;9.07;6.80;;;14.50;64.20;;;;;;5050270;28;20440;-86
2021/04/22 10:50:53;;;;;;;14.27;7.33;;;14.70;64.50;;;;;;5051803;28;20806;-86
2021/04/22 10:53:23;;;;;;;9.10;6.73;;;14.80;64.50;;;;;;5044019;28;20427;-86
2021/04/22 10:55:55;;;;;;;9.90;6.40;;;14.50;61.60;;;;;;5038379;28;20463;-84
2021/04/22 10:58:32;;;;;;;15.73;7.67;;;14.50;63.10;;;;;;5052928;28;20448;-84
2021/04/22 11:01:03;;;;;;;12.17;6.50;;;14.50;62.60;;;;;;5055837;28;20493;-85
2021/04/22 11:03:47;;;;;;;10.67;8.20;;;14.70;63.10;;;;;;5056361;28;20772;-83
2021/04/22 11:06:18;;;;;;;10.80;8.10;;;14.70;62.30;;;;;;5020063;28;20474;-83
2021/04/22 11:08:48;;;;;;;9.40;7.63;;;15.00;61.40;;;;;;5022105;28;20795;-83
2021/04/22 11:11:35;;;;;;;11.43;7.17;;;15.10;61.30;;;;;;5056727;28;20463;-86
2021/04/22 11:14:10;;;;;;;11.37;6.80;;;14.90;59.60;;;;;;5055364;28;20440;-83
2021/04/22 11:16:39;;;;;;;13.53;8.13;;;15.00;61.20;;;;;;5021004;28;20482;-82
2021/04/22 11:19:15;;;;;;;12.57;7.43;;;15.10;61.60;;;;;;5022811;28;20448;-83
2021/04/22 11:21:54;;;;;;;9.90;8.40;;;14.90;59.40;;;;;;5052604;28;20444;-83
2021/04/22 11:24:30;;;;;;;13.40;7.63;;;14.90;61.50;;;;;;5047810;28;20530;-82
2021/04/22 11:27:01;;;;;;;11.87;6.93;;;15.20;59.90;;;;;;5056172;28;20433;-83
2021/04/22 11:29:45;;;;;;;10.63;7.33;;;15.40;61.30;;;;;;5054655;28;20450;-85
2021/04/22 11:32:31;;;;;;;10.57;7.27;;;15.20;59.50;;;;;;5051862;28;20443;-86
2021/04/22 11:35:05;;;;;;;10.37;7.50;;;15.40;59.10;;;;;;5055414;28;20484;-85
2021/04/22 11:37:38;;;;;;;9.73;6.53;;;15.20;58.50;;;;;;5040985;28;20474;-89
2021/04/22 11:40:27;;;;;;;10.70;7.57;;;15.20;58.60;;;;;;5051703;28;20425;-86
2021/04/22 11:42:56;;;;;;;8.90;6.87;;;15.00;58.80;;;;;;5036900;28;20428;-87
2021/04/22 11:45:25;;;;;;;10.43;7.40;;;15.10;56.80;;;;;;5047019;28;20433;-85
2021/04/22 11:48:11;;;;;;;13.37;8.10;;;15.30;58.20;;;;;;5038116;28;20862;-85
2021/04/22 11:50:51;;;;;;;9.17;8.20;;;15.60;59.30;;;;;;5054766;28;20431;-84
2021/04/22 11:53:23;;;;;;;8.67;7.67;;;15.60;58.70;;;;;;5036828;28;20456;-89
2021/04/22 11:55:57;;;;;;;12.27;8.40;;;16.00;55.50;;;;;;5054528;28;20501;-84
2021/04/22 11:58:26;;;;;;;12.63;8.10;;;15.80;56.60;;;;;;5054730;28;20422;-84
2021/04/22 12:01:03;;;;;;;11.23;7.80;;;15.90;57.60;;;;;;5055616;28;20431;-83
2021/04/22 12:03:33;;;;;;;9.47;7.17;;;16.00;57.80;;;;;;5049676;28;20442;-82
2021/04/22 12:06:02;;;;;;;8.97;6.97;;;16.00;57.40;;;;;;5054116;28;20771;-82
2021/04/22 12:08:31;;;;;;;8.80;6.23;;;16.30;57.40;;;;;;5037863;28;20515;-82
2021/04/22 12:10:59;;;;;;;10.40;8.00;;;16.40;54.80;;;;;;5053680;28;20538;-81
2021/04/22 12:13:27;;;;;;;12.10;8.50;;;16.50;55.70;;;;;;5054381;28;20492;-83
2021/04/22 12:16:02;;;;;;;9.17;7.47;;;16.60;55.80;;;;;;5036728;28;20469;-82
2021/04/22 12:18:33;;;;;;;11.77;7.87;;;16.50;55.20;;;;;;5031179;28;20435;-84
2021/04/22 12:21:10;;;;;;;11.53;8.70;;;16.70;56.60;;;;;;5049561;28;20495;-82
2021/04/22 12:23:39;;;;;;;8.73;7.87;;;16.40;55.30;;;;;;5053608;28;20433;-84
2021/04/22 12:26:17;;;;;;;13.27;8.53;;;16.60;55.30;;;;;;5053699;28;20462;-82
2021/04/22 12:29:01;;;;;;;10.07;8.80;;;16.60;54.80;;;;;;5054535;28;20607;-84
2021/04/22 12:31:35;;;;;;;12.20;7.07;;;16.40;55.20;;;;;;5035842;28;20499;-85
2021/04/22 12:34:22;;;;;;;10.97;6.47;;;16.50;55.90;;;;;;5055554;28;20788;-86
2021/04/22 12:37:07;;;;;;;10.50;7.87;;;16.70;54.30;;;;;;5050437;28;20455;-84
2021/04/22 12:39:52;;;;;;;9.63;8.80;;;16.30;53.80;;;;;;5039050;28;20441;-85
2021/04/22 12:42:26;;;;;;;10.87;7.90;;;15.90;54.10;;;;;;5054083;28;20412;-84
2021/04/22 12:45:04;;;;;;;8.43;6.53;;;15.80;54.60;;;;;;5035487;28;20406;-83
2021/04/22 12:47:38;;;;;;;10.90;6.67;;;15.90;56.60;;;;;;5054690;28;20434;-83
2021/04/22 12:50:09;;;;;;;9.90;8.17;;;16.10;54.50;;;;;;5054674;28;20572;-82
2021/04/22 12:52:35;;;;;;;8.63;6.30;;;16.10;55.20;;;;;;5046138;28;20429;-83
2021/04/22 12:55:14;;;;;;;8.30;7.30;;;16.40;54.80;;;;;;5054388;28;20900;-84